sensor_id;sensor_type;location;lat;lon;timestamp;pressure;altitude;pressure_sealevel;temperature;humidity
25130;BME280;13308;50.860;13.664;2023-11-21T06:51:58;96227.91;;;7.11;100.00
25130;BME280;13308;50.860;13.664;2023-11-21T06:54:26;96242.09;;;7.02;100.00
25130;BME280;13308;50.860;13.664;2023-11-21T06:56:51;96231.63;;;6.94;100.00
25130;BME280;13308;50.860;13.664;2023-11-21T06:59:18;96236.78;;;6.88;100.00
25130;BME280;13308;50.860;13.664;2023-11-21T07:01:44;96247.06;;;6.81;100.00
25130;BME280;13308;50.860;13.664;2023-11-21T07:04:09;96244.72;;;6.79;100.00
25130;BME280;13308;50.860;13.664;2023-11-21T07:06:35;96244.59;;;6.90;100.00
25130;BME280;13308;50.860;13.664;2023-11-21T07:09:00;96253.19;;;6.92;100.00
25130;BME280;13308;50.860;13.664;2023-11-21T07:11:27;96250.81;;;6.94;100.00
25130;BME280;13308;50.860;13.664;2023-11-21T07:13:52;96255.50;;;6.97;100.00
25130;BME280;13308;50.860;13.664;2023-11-21T07:16:18;96255.50;;;6.97;100.00
25130;BME280;13308;50.860;13.664;2023-11-21T07:18:44;96258.59;;;6.99;100.00
25130;BME280;13308;50.860;13.664;2023-11-21T07:21:10;96258.97;;;7.01;100.00
25130;BME280;13308;50.860;13.664;2023-11-21T07:23:37;96250.75;;;7.01;100.00
25130;BME280;13308;50.860;13.664;2023-11-21T07:26:03;96258.50;;;7.06;100.00
25130;BME280;13308;50.860;13.664;2023-11-21T07:28:29;96263.56;;;7.11;100.00
25130;BME280;13308;50.860;13.664;2023-11-21T07:30:55;96263.81;;;7.20;100.00
25130;BME280;13308;50.860;13.664;2023-11-21T07:33:20;96267.66;;;7.26;100.00
25130;BME280;13308;50.860;13.664;2023-11-21T07:35:46;96268.50;;;7.23;100.00
25130;BME280;13308;50.860;13.664;2023-11-21T07:38:12;96266.06;;;7.28;100.00
25130;BME280;13308;50.860;13.664;2023-11-21T07:40:38;96268.41;;;7.30;100.00
25130;BME280;13308;50.860;13.664;2023-11-21T07:43:03;96269.25;;;7.27;100.00
25130;BME280;13308;50.860;13.664;2023-11-21T07:45:28;96265.31;;;7.28;100.00
25130;BME280;13308;50.860;13.664;2023-11-21T07:47:54;96274.69;;;7.30;100.00
25130;BME280;13308;50.860;13.664;2023-11-21T07:50:21;96271.59;;;7.25;100.00
25130;BME280;13308;50.860;13.664;2023-11-21T07:52:48;96274.75;;;7.27;100.00
25130;BME280;13308;50.860;13.664;2023-11-21T07:55:15;96284.50;;;7.28;100.00
25130;BME280;13308;50.860;13.664;2023-11-21T07:57:40;96283.41;;;7.22;100.00
25130;BME280;13308;50.860;13.664;2023-11-21T08:00:06;96284.97;;;7.23;100.00
25130;BME280;13308;50.860;13.664;2023-11-21T08:02:39;96276.38;;;7.21;100.00
25130;BME280;13308;50.860;13.664;2023-11-21T08:05:05;96284.13;;;7.26;100.00
25130;BME280;13308;50.860;13.664;2023-11-21T08:07:32;96284.97;;;7.23;100.00
25130;BME280;13308;50.860;13.664;2023-11-21T08:09:57;96286.50;;;7.24;100.00
25130;BME280;13308;50.860;13.664;2023-11-21T08:12:23;96280.97;;;7.27;100.00
25130;BME280;13308;50.860;13.664;2023-11-21T08:14:49;96287.25;;;7.28;100.00
25130;BME280;13308;50.860;13.664;2023-11-21T08:17:14;96287.69;;;7.23;100.00
25130;BME280;13308;50.860;13.664;2023-11-21T08:19:39;96291.19;;;7.27;100.00
25130;BME280;13308;50.860;13.664;2023-11-21T08:22:05;96291.19;;;7.27;100.00
25130;BME280;13308;50.860;13.664;2023-11-21T08:24:32;96298.22;;;7.28;100.00
25130;BME280;13308;50.860;13.664;2023-11-21T08:26:58;96301.72;;;7.28;100.00
25130;BME280;13308;50.860;13.664;2023-11-21T08:29:23;96291.94;;;7.27;100.00
25130;BME280;13308;50.860;13.664;2023-11-21T08:31:48;96295.84;;;7.30;100.00
25130;BME280;13308;50.860;13.664;2023-11-21T08:34:14;96298.19;;;7.31;100.00
25130;BME280;13308;50.860;13.664;2023-11-21T08:36:43;96293.47;;;7.32;100.00
25130;BME280;13308;50.860;13.664;2023-11-21T08:39:09;96303.28;;;7.33;100.00
25130;BME280;13308;50.860;13.664;2023-11-21T08:41:35;96298.13;;;7.35;100.00
25130;BME280;13308;50.860;13.664;2023-11-21T08:44:02;96302.53;;;7.29;100.00
25130;BME280;13308;50.860;13.664;2023-11-21T08:46:30;96310.34;;;7.30;100.00
25130;BME280;13308;50.860;13.664;2023-11-21T08:48:56;96307.53;;;7.37;100.00
25130;BME280;13308;50.860;13.664;2023-11-21T08:51:21;96307.91;;;7.36;100.00
25130;BME280;13308;50.860;13.664;2023-11-21T08:53:46;96307.53;;;7.37;100.00
25130;BME280;13308;50.860;13.664;2023-11-21T08:56:13;96314.59;;;7.35;100.00
25130;BME280;13308;50.860;13.664;2023-11-21T08:58:41;96315.03;;;7.30;100.00
25130;BME280;13308;50.860;13.664;2023-11-21T09:01:06;96309.91;;;7.32;100.00
25130;BME280;13308;50.860;13.664;2023-11-21T09:03:32;96315.41;;;7.32;100.00
25130;BME280;13308;50.860;13.664;2023-11-21T09:06:00;96313.41;;;7.36;100.00
25130;BME280;13308;50.860;13.664;2023-11-21T09:08:25;96315.34;;;7.39;100.00
25130;BME280;13308;50.860;13.664;2023-11-21T09:10:50;96320.84;;;7.39;100.00
25130;BME280;13308;50.860;13.664;2023-11-21T09:13:17;96322.66;;;7.49;100.00
25130;BME280;13308;50.860;13.664;2023-11-21T09:15:43;96321.09;;;7.48;100.00
25130;BME280;13308;50.860;13.664;2023-11-21T09:18:13;96319.88;;;7.52;100.00
25130;BME280;13308;50.860;13.664;2023-11-21T09:20:38;96317.59;;;7.44;100.00
25130;BME280;13308;50.860;13.664;2023-11-21T09:23:03;96322.66;;;7.49;100.00
25130;BME280;13308;50.860;13.664;2023-11-21T09:25:29;96323.84;;;7.48;100.00
25130;BME280;13308;50.860;13.664;2023-11-21T09:27:54;96329.41;;;7.41;100.00
25130;BME280;13308;50.860;13.664;2023-11-21T09:30:19;96330.22;;;7.41;100.00
25130;BME280;13308;50.860;13.664;2023-11-21T09:32:45;96331.31;;;7.44;100.00
25130;BME280;13308;50.860;13.664;2023-11-21T09:35:10;96338.44;;;7.41;100.00
25130;BME280;13308;50.860;13.664;2023-11-21T09:37:36;96331.81;;;7.39;100.00
25130;BME280;13308;50.860;13.664;2023-11-21T09:40:04;96334.47;;;7.46;100.00
25130;BME280;13308;50.860;13.664;2023-11-21T09:42:36;96332.91;;;7.45;100.00
25130;BME280;13308;50.860;13.664;2023-11-21T09:45:13;96341.13;;;7.45;100.00
25130;BME280;13308;50.860;13.664;2023-11-21T09:47:42;96341.06;;;7.52;100.00
25130;BME280;13308;50.860;13.664;2023-11-21T09:50:08;96349.28;;;7.52;100.00
25130;BME280;13308;50.860;13.664;2023-11-21T09:52:44;96344.19;;;7.50;100.00
25130;BME280;13308;50.860;13.664;2023-11-21T09:55:16;96341.84;;;7.49;100.00
25130;BME280;13308;50.860;13.664;2023-11-21T09:57:44;96354.38;;;7.53;100.00
25130;BME280;13308;50.860;13.664;2023-11-21T10:00:11;96355.53;;;7.52;100.00
25130;BME280;13308;50.860;13.664;2023-11-21T10:02:38;96351.28;;;7.48;100.00
25130;BME280;13308;50.860;13.664;2023-11-21T10:05:06;96355.25;;;7.43;100.00
25130;BME280;13308;50.860;13.664;2023-11-21T10:07:31;96354.81;;;7.48;100.00
25130;BME280;13308;50.860;13.664;2023-11-21T10:10:00;96354.84;;;7.45;100.00
25130;BME280;13308;50.860;13.664;2023-11-21T10:12:28;96348.97;;;7.43;100.00
25130;BME280;13308;50.860;13.664;2023-11-21T10:14:54;96356.84;;;7.41;100.00
25130;BME280;13308;50.860;13.664;2023-11-21T10:17:23;96354.50;;;7.39;100.00
25130;BME280;13308;50.860;13.664;2023-11-21T10:19:50;96357.63;;;7.41;100.00
25130;BME280;13308;50.860;13.664;2023-11-21T10:22:15;96360.41;;;7.38;100.00
25130;BME280;13308;50.860;13.664;2023-11-21T10:24:41;96373.34;;;7.37;100.00
25130;BME280;13308;50.860;13.664;2023-11-21T10:27:08;96367.91;;;7.34;100.00
25130;BME280;13308;50.860;13.664;2023-11-21T10:29:34;96366.72;;;7.35;100.00
25130;BME280;13308;50.860;13.664;2023-11-21T10:32:02;96365.19;;;7.30;100.00
25130;BME280;13308;50.860;13.664;2023-11-21T10:34:28;96372.19;;;7.35;100.00
25130;BME280;13308;50.860;13.664;2023-11-21T10:36:55;96374.16;;;7.34;100.00
25130;BME280;13308;50.860;13.664;2023-11-21T10:39:23;96370.38;;;7.21;100.00
25130;BME280;13308;50.860;13.664;2023-11-21T10:41:52;96369.91;;;7.30;100.00
25130;BME280;13308;50.860;13.664;2023-11-21T10:44:18;96376.50;;;7.36;100.00
25130;BME280;13308;50.860;13.664;2023-11-21T10:46:53;96379.69;;;7.31;100.00
25130;BME280;13308;50.860;13.664;2023-11-21T10:49:24;96382.66;;;7.10;100.00
25130;BME280;13308;50.860;13.664;2023-11-21T10:51:55;96379.63;;;6.97;100.00
25130;BME280;13308;50.860;13.664;2023-11-21T10:54:22;96385.56;;;6.89;100.00
25130;BME280;13308;50.860;13.664;2023-11-21T10:57:06;96388.69;;;6.87;100.00
25130;BME280;13308;50.860;13.664;2023-11-21T10:59:32;96391.88;;;6.86;100.00
25130;BME280;13308;50.860;13.664;2023-11-21T11:01:58;96394.28;;;6.77;100.00
25130;BME280;13308;50.860;13.664;2023-11-21T11:04:27;96398.59;;;6.74;100.00
25130;BME280;13308;50.860;13.664;2023-11-21T11:06:57;96398.22;;;6.76;100.00
25130;BME280;13308;50.860;13.664;2023-11-21T11:09:23;96395.47;;;6.76;100.00
25130;BME280;13308;50.860;13.664;2023-11-21T11:11:48;96403.00;;;6.61;100.00
25130;BME280;13308;50.860;13.664;2023-11-21T11:14:14;96400.66;;;6.60;100.00
25130;BME280;13308;50.860;13.664;2023-11-21T11:16:41;96412.81;;;6.59;100.00
25130;BME280;13308;50.860;13.664;2023-11-21T11:19:08;96413.22;;;6.54;100.00
25130;BME280;13308;50.860;13.664;2023-11-21T11:21:50;96417.16;;;6.53;100.00
25130;BME280;13308;50.860;13.664;2023-11-21T11:30:16;96421.34;;;6.10;100.00
25130;BME280;13308;50.860;13.664;2023-11-21T11:32:58;96423.72;;;6.01;100.00
25130;BME280;13308;50.860;13.664;2023-11-21T11:35:39;96429.63;;;5.92;100.00
25130;BME280;13308;50.860;13.664;2023-11-21T11:38:07;96433.19;;;5.86;100.00
25130;BME280;13308;50.860;13.664;2023-11-21T11:40:40;96431.63;;;5.85;100.00
25130;BME280;13308;50.860;13.664;2023-11-21T11:43:07;96436.31;;;5.81;100.00
25130;BME280;13308;50.860;13.664;2023-11-21T11:45:34;96440.97;;;5.77;100.00
25130;BME280;13308;50.860;13.664;2023-11-21T11:48:01;96445.28;;;5.74;100.00
25130;BME280;13308;50.860;13.664;2023-11-21T11:50:27;96442.56;;;5.71;100.00
25130;BME280;13308;50.860;13.664;2023-11-21T11:52:53;96444.94;;;5.69;100.00
25130;BME280;13308;50.860;13.664;2023-11-21T11:55:24;96450.41;;;5.69;100.00
25130;BME280;13308;50.860;13.664;2023-11-21T11:57:52;96457.44;;;5.63;100.00
25130;BME280;13308;50.860;13.664;2023-11-21T12:00:21;96468.38;;;5.66;100.00
25130;BME280;13308;50.860;13.664;2023-11-21T12:03:01;96461.31;;;5.72;100.00
25130;BME280;13308;50.860;13.664;2023-11-21T12:05:30;96462.91;;;5.63;100.00
25130;BME280;13308;50.860;13.664;2023-11-21T12:08:07;96460.97;;;5.53;100.00
25130;BME280;13308;50.860;13.664;2023-11-21T12:10:34;96456.72;;;5.45;100.00
25130;BME280;13308;50.860;13.664;2023-11-21T12:13:01;96459.81;;;5.43;100.00
25130;BME280;13308;50.860;13.664;2023-11-21T12:15:26;96458.28;;;5.39;100.00
25130;BME280;13308;50.860;13.664;2023-11-21T12:17:55;96466.09;;;5.40;100.00
25130;BME280;13308;50.860;13.664;2023-11-21T12:20:23;96470.78;;;5.36;100.00
25130;BME280;13308;50.860;13.664;2023-11-21T12:22:50;96474.31;;;5.33;100.00
25130;BME280;13308;50.860;13.664;2023-11-21T12:25:17;96474.72;;;5.25;100.00
25130;BME280;13308;50.860;13.664;2023-11-21T12:27:48;96475.47;;;5.25;100.00
25130;BME280;13308;50.860;13.664;2023-11-21T12:30:15;96472.75;;;5.25;100.00
25130;BME280;13308;50.860;13.664;2023-11-21T12:32:43;96477.03;;;5.23;100.00
25130;BME280;13308;50.860;13.664;2023-11-21T12:35:09;96485.66;;;5.21;100.00
25130;BME280;13308;50.860;13.664;2023-11-21T12:37:39;96487.22;;;5.15;100.00
25130;BME280;13308;50.860;13.664;2023-11-21T12:40:07;96492.69;;;5.12;100.00
25130;BME280;13308;50.860;13.664;2023-11-21T12:42:34;96491.91;;;5.08;100.00
25130;BME280;13308;50.860;13.664;2023-11-21T12:45:29;96502.03;;;5.04;100.00
25130;BME280;13308;50.860;13.664;2023-11-21T12:47:58;96499.69;;;4.99;100.00
25130;BME280;13308;50.860;13.664;2023-11-21T12:50:26;96508.28;;;4.90;100.00
25130;BME280;13308;50.860;13.664;2023-11-21T12:52:57;96504.78;;;4.90;100.00
25130;BME280;13308;50.860;13.664;2023-11-21T12:55:23;96504.78;;;4.86;100.00
25130;BME280;13308;50.860;13.664;2023-11-21T12:57:53;96509.81;;;4.81;100.00
25130;BME280;13308;50.860;13.664;2023-11-21T13:00:33;96522.72;;;4.77;100.00
25130;BME280;13308;50.860;13.664;2023-11-21T13:02:59;96522.31;;;4.75;100.00
25130;BME280;13308;50.860;13.664;2023-11-21T13:05:29;96525.41;;;4.70;100.00
25130;BME280;13308;50.860;13.664;2023-11-21T13:08:01;96518.38;;;4.65;100.00
25130;BME280;13308;50.860;13.664;2023-11-21T13:10:32;96528.13;;;4.63;100.00
25130;BME280;13308;50.860;13.664;2023-11-21T13:12:58;96526.59;;;4.69;100.00
25130;BME280;13308;50.860;13.664;2023-11-21T13:15:24;96534.03;;;4.72;100.00
25130;BME280;13308;50.860;13.664;2023-11-21T13:17:50;96539.47;;;4.72;100.00
25130;BME280;13308;50.860;13.664;2023-11-21T13:20:17;96530.88;;;4.70;100.00
25130;BME280;13308;50.860;13.664;2023-11-21T13:22:58;96527.75;;;4.68;100.00
25130;BME280;13308;50.860;13.664;2023-11-21T13:25:28;96537.13;;;4.67;100.00
25130;BME280;13308;50.860;13.664;2023-11-21T13:27:54;96539.06;;;4.70;100.00
25130;BME280;13308;50.860;13.664;2023-11-21T13:30:19;96537.88;;;4.60;100.00
25130;BME280;13308;50.860;13.664;2023-11-21T13:32:51;96537.88;;;4.64;100.00
25130;BME280;13308;50.860;13.664;2023-11-21T13:35:19;96544.94;;;4.65;100.00
25130;BME280;13308;50.860;13.664;2023-11-21T13:37:56;96544.94;;;4.65;100.00
25130;BME280;13308;50.860;13.664;2023-11-21T13:40:25;96563.63;;;4.66;100.00
25130;BME280;13308;50.860;13.664;2023-11-21T13:42:53;96562.09;;;4.69;100.00
25130;BME280;13308;50.860;13.664;2023-11-21T13:45:20;96562.06;;;4.62;100.00
25130;BME280;13308;50.860;13.664;2023-11-21T13:47:47;96564.44;;;4.63;100.00
25130;BME280;13308;50.860;13.664;2023-11-21T13:50:12;96573.78;;;4.55;100.00
25130;BME280;13308;50.860;13.664;2023-11-21T13:52:43;96572.19;;;4.58;100.00
25130;BME280;13308;50.860;13.664;2023-11-21T13:55:10;96572.59;;;4.53;100.00
25130;BME280;13308;50.860;13.664;2023-11-21T13:57:40;96569.06;;;4.56;100.00
25130;BME280;13308;50.860;13.664;2023-11-21T14:00:08;96568.28;;;4.52;100.00
25130;BME280;13308;50.860;13.664;2023-11-21T14:02:51;96577.28;;;4.56;100.00
25130;BME280;13308;50.860;13.664;2023-11-21T14:05:16;96571.41;;;4.54;100.00
25130;BME280;13308;50.860;13.664;2023-11-21T14:07:46;96574.53;;;4.56;100.00
25130;BME280;13308;50.860;13.664;2023-11-21T14:10:13;96577.66;;;4.58;100.00
25130;BME280;13308;50.860;13.664;2023-11-21T14:12:39;96583.88;;;4.48;100.00
25130;BME280;13308;50.860;13.664;2023-11-21T14:15:08;96572.97;;;4.55;100.00
25130;BME280;13308;50.860;13.664;2023-11-21T14:17:35;96585.84;;;4.54;100.00
25130;BME280;13308;50.860;13.664;2023-11-21T14:20:02;96579.97;;;4.49;100.00
25130;BME280;13308;50.860;13.664;2023-11-21T14:22:30;96582.34;;;4.54;100.00
25130;BME280;13308;50.860;13.664;2023-11-21T14:24:56;96586.25;;;4.53;100.00
25130;BME280;13308;50.860;13.664;2023-11-21T14:27:25;96581.94;;;4.52;100.00
25130;BME280;13308;50.860;13.664;2023-11-21T14:29:50;96590.13;;;4.52;100.00
25130;BME280;13308;50.860;13.664;2023-11-21T14:32:15;96590.09;;;4.45;100.00
25130;BME280;13308;50.860;13.664;2023-11-21T14:34:41;96590.88;;;4.45;100.00
25130;BME280;13308;50.860;13.664;2023-11-21T14:37:10;96591.25;;;4.44;100.00
25130;BME280;13308;50.860;13.664;2023-11-21T14:39:39;96599.06;;;4.42;100.00
25130;BME280;13308;50.860;13.664;2023-11-21T14:42:09;96597.09;;;4.39;100.00
25130;BME280;13308;50.860;13.664;2023-11-21T14:44:35;96611.50;;;4.29;100.00
25130;BME280;13308;50.860;13.664;2023-11-21T14:47:04;96609.50;;;4.26;100.00
25130;BME280;13308;50.860;13.664;2023-11-21T14:49:34;96618.06;;;4.24;100.00
25130;BME280;13308;50.860;13.664;2023-11-21T14:52:17;96617.22;;;4.13;100.00
25130;BME280;13308;50.860;13.664;2023-11-21T14:54:57;96620.72;;;4.07;100.00
25130;BME280;13308;50.860;13.664;2023-11-21T14:57:45;96613.31;;;4.07;100.00
25130;BME280;13308;50.860;13.664;2023-11-21T15:00:19;96624.19;;;4.04;100.00
25130;BME280;13308;50.860;13.664;2023-11-21T15:03:07;96625.81;;;4.08;100.00
25130;BME280;13308;50.860;13.664;2023-11-21T15:05:34;96629.66;;;4.04;100.00
25130;BME280;13308;50.860;13.664;2023-11-21T15:08:00;96634.38;;;4.07;100.00
25130;BME280;13308;50.860;13.664;2023-11-21T15:10:44;96637.78;;;3.97;100.00
25130;BME280;13308;50.860;13.664;2023-11-21T15:13:14;96643.56;;;3.85;100.00
25130;BME280;13308;50.860;13.664;2023-11-21T15:15:41;96642.69;;;3.74;100.00
25130;BME280;13308;50.860;13.664;2023-11-21T15:18:07;96648.88;;;3.64;100.00
25130;BME280;13308;50.860;13.664;2023-11-21T15:20:33;96651.16;;;3.58;100.00
25130;BME280;13308;50.860;13.664;2023-11-21T15:22:58;96653.44;;;3.53;100.00
25130;BME280;13308;50.860;13.664;2023-11-21T15:25:23;96658.84;;;3.46;100.00
25130;BME280;13308;50.860;13.664;2023-11-21T15:27:49;96661.88;;;3.37;100.00
25130;BME280;13308;50.860;13.664;2023-11-21T15:30:16;96665.72;;;3.33;100.00
25130;BME280;13308;50.860;13.664;2023-11-21T15:32:44;96668.03;;;3.31;100.00
25130;BME280;13308;50.860;13.664;2023-11-21T15:35:09;96665.66;;;3.26;100.00
25130;BME280;13308;50.860;13.664;2023-11-21T15:37:38;96680.75;;;3.20;100.00
25130;BME280;13308;50.860;13.664;2023-11-21T15:40:04;96675.28;;;3.16;100.00
25130;BME280;13308;50.860;13.664;2023-11-21T15:42:31;96681.09;;;3.15;100.00
25130;BME280;13308;50.860;13.664;2023-11-21T15:44:56;96681.84;;;3.12;100.00
25130;BME280;13308;50.860;13.664;2023-11-21T15:47:22;96693.13;;;3.10;100.00
25130;BME280;13308;50.860;13.664;2023-11-21T15:49:47;96695.44;;;3.08;100.00
25130;BME280;13308;50.860;13.664;2023-11-21T15:52:12;96690.31;;;3.03;100.00
25130;BME280;13308;50.860;13.664;2023-11-21T15:54:38;96704.38;;;3.09;100.00
25130;BME280;13308;50.860;13.664;2023-11-21T15:57:03;96698.91;;;3.05;100.00
25130;BME280;13308;50.860;13.664;2023-11-21T15:59:29;96700.84;;;3.05;100.00
25130;BME280;13308;50.860;13.664;2023-11-21T16:01:59;96709.44;;;3.07;100.00
25130;BME280;13308;50.860;13.664;2023-11-21T16:04:25;96715.28;;;3.09;100.00
25130;BME280;13308;50.860;13.664;2023-11-21T16:06:52;96728.16;;;3.12;100.00
25130;BME280;13308;50.860;13.664;2023-11-21T16:09:18;96722.72;;;3.12;100.00
25130;BME280;13308;50.860;13.664;2023-11-21T16:11:51;96720.28;;;3.03;100.00
25130;BME280;13308;50.860;13.664;2023-11-21T16:14:21;96722.22;;;3.03;100.00
25130;BME280;13308;50.860;13.664;2023-11-21T16:16:51;96729.94;;;2.97;100.00
25130;BME280;13308;50.860;13.664;2023-11-21T16:19:16;96723.97;;;2.88;100.00
25130;BME280;13308;50.860;13.664;2023-11-21T16:21:46;96721.97;;;2.82;100.00
25130;BME280;13308;50.860;13.664;2023-11-21T16:24:11;96728.25;;;2.86;100.00
25130;BME280;13308;50.860;13.664;2023-11-21T16:26:36;96728.25;;;2.86;100.00
25130;BME280;13308;50.860;13.664;2023-11-21T16:29:02;96730.56;;;2.84;100.00
25130;BME280;13308;50.860;13.664;2023-11-21T16:31:28;96728.16;;;2.79;100.00
25130;BME280;13308;50.860;13.664;2023-11-21T16:33:54;96738.72;;;2.84;100.00
25130;BME280;13308;50.860;13.664;2023-11-21T16:36:19;96743.41;;;2.83;100.00
25130;BME280;13308;50.860;13.664;2023-11-21T16:38:45;96743.00;;;2.85;100.00
25130;BME280;13308;50.860;13.664;2023-11-21T16:41:10;96749.22;;;2.82;100.00
25130;BME280;13308;50.860;13.664;2023-11-21T16:43:35;96755.84;;;2.84;100.00
25130;BME280;13308;50.860;13.664;2023-11-21T16:46:02;96757.78;;;2.84;100.00
25130;BME280;13308;50.860;13.664;2023-11-21T16:48:27;96761.66;;;2.83;100.00
25130;BME280;13308;50.860;13.664;2023-11-21T16:50:53;96770.19;;;2.81;100.00
25130;BME280;13308;50.860;13.664;2023-11-21T16:53:18;96770.94;;;2.78;100.00
25130;BME280;13308;50.860;13.664;2023-11-21T16:55:43;96771.66;;;2.75;100.00
25130;BME280;13308;50.860;13.664;2023-11-21T16:58:10;96777.91;;;2.76;100.00
25130;BME280;13308;50.860;13.664;2023-11-21T17:00:36;96781.03;;;2.78;100.00
25130;BME280;13308;50.860;13.664;2023-11-21T17:03:01;96770.06;;;2.71;100.00
25130;BME280;13308;50.860;13.664;2023-11-21T17:05:26;96784.13;;;2.76;100.00
25130;BME280;13308;50.860;13.664;2023-11-21T17:07:52;96776.31;;;2.71;100.00
25130;BME280;13308;50.860;13.664;2023-11-21T17:10:18;96787.97;;;2.72;100.00
25130;BME280;13308;50.860;13.664;2023-11-21T17:12:45;96784.53;;;2.75;100.00
25130;BME280;13308;50.860;13.664;2023-11-21T17:15:10;96789.53;;;2.73;100.00
25130;BME280;13308;50.860;13.664;2023-11-21T17:17:36;96784.88;;;2.73;100.00
25130;BME280;13308;50.860;13.664;2023-11-21T17:20:02;96787.66;;;2.77;100.00
25130;BME280;13308;50.860;13.664;2023-11-21T17:22:33;96781.78;;;2.75;100.00
25130;BME280;13308;50.860;13.664;2023-11-21T17:24:59;96793.72;;;2.67;100.00
25130;BME280;13308;50.860;13.664;2023-11-21T17:27:25;96797.59;;;2.66;100.00
25130;BME280;13308;50.860;13.664;2023-11-21T17:29:51;96796.44;;;2.67;100.00
25130;BME280;13308;50.860;13.664;2023-11-21T17:32:16;96800.31;;;2.66;100.00
25130;BME280;13308;50.860;13.664;2023-11-21T17:34:42;96799.50;;;2.62;100.00
25130;BME280;13308;50.860;13.664;2023-11-21T17:37:07;96799.38;;;2.55;100.00
25130;BME280;13308;50.860;13.664;2023-11-21T17:39:33;96800.13;;;2.52;100.00
25130;BME280;13308;50.860;13.664;2023-11-21T17:41:59;96805.56;;;2.52;100.00
25130;BME280;13308;50.860;13.664;2023-11-21T17:44:26;96797.72;;;2.47;100.00
25130;BME280;13308;50.860;13.664;2023-11-21T17:46:52;96810.16;;;2.48;100.00
25130;BME280;13308;50.860;13.664;2023-11-21T17:49:17;96819.50;;;2.47;100.00
25130;BME280;13308;50.860;13.664;2023-11-21T17:51:43;96828.38;;;2.44;100.00
25130;BME280;13308;50.860;13.664;2023-11-21T17:54:08;96830.31;;;2.43;100.00
25130;BME280;13308;50.860;13.664;2023-11-21T17:56:34;96820.94;;;2.41;100.00
25130;BME280;13308;50.860;13.664;2023-11-21T17:59:01;96821.38;;;2.43;100.00
25130;BME280;13308;50.860;13.664;2023-11-21T18:01:28;96834.97;;;2.43;100.00
25130;BME280;13308;50.860;13.664;2023-11-21T18:03:59;96831.84;;;2.41;100.00
25130;BME280;13308;50.860;13.664;2023-11-21T18:06:25;96838.44;;;2.40;100.00
25130;BME280;13308;50.860;13.664;2023-11-21T18:08:50;96836.44;;;2.37;100.00
25130;BME280;13308;50.860;13.664;2023-11-21T18:11:16;96841.88;;;2.37;100.00
25130;BME280;13308;50.860;13.664;2023-11-21T18:13:41;96849.63;;;2.35;100.00
25130;BME280;13308;50.860;13.664;2023-11-21T18:16:07;96841.75;;;2.30;100.00
25130;BME280;13308;50.860;13.664;2023-11-21T18:18:32;96842.44;;;2.23;100.00
25130;BME280;13308;50.860;13.664;2023-11-21T18:20:58;96848.66;;;2.24;100.00
25130;BME280;13308;50.860;13.664;2023-11-21T18:23:23;96852.94;;;2.25;100.00
25130;BME280;13308;50.860;13.664;2023-11-21T18:25:48;96852.94;;;2.25;100.00
25130;BME280;13308;50.860;13.664;2023-11-21T18:28:14;96867.28;;;2.22;100.00
25130;BME280;13308;50.860;13.664;2023-11-21T18:30:39;96869.56;;;2.20;100.00
25130;BME280;13308;50.860;13.664;2023-11-21T18:33:04;96867.28;;;2.22;100.00
25130;BME280;13308;50.860;13.664;2023-11-21T18:35:30;96876.59;;;2.21;100.00
25130;BME280;13308;50.860;13.664;2023-11-21T18:37:56;96880.94;;;2.25;100.00
25130;BME280;13308;50.860;13.664;2023-11-21T18:40:21;96887.53;;;2.24;100.00
25130;BME280;13308;50.860;13.664;2023-11-21T18:42:46;96890.16;;;2.17;100.00
25130;BME280;13308;50.860;13.664;2023-11-21T18:45:12;96895.94;;;2.16;100.00
25130;BME280;13308;50.860;13.664;2023-11-21T18:47:38;96899.66;;;2.08;100.00
25130;BME280;13308;50.860;13.664;2023-11-21T18:50:05;96902.72;;;2.03;100.00
25130;BME280;13308;50.860;13.664;2023-11-21T18:52:31;96910.41;;;2.01;100.00
25130;BME280;13308;50.860;13.664;2023-11-21T18:54:58;96909.59;;;1.97;100.00
25130;BME280;13308;50.860;13.664;2023-11-21T18:57:24;96916.59;;;1.98;100.00
25130;BME280;13308;50.860;13.664;2023-11-21T18:59:50;96920.03;;;1.95;100.00
25130;BME280;13308;50.860;13.664;2023-11-21T19:02:15;96909.59;;;1.97;100.00
25130;BME280;13308;50.860;13.664;2023-11-21T19:04:42;96920.47;;;1.97;100.00
25130;BME280;13308;50.860;13.664;2023-11-21T19:07:09;96922.75;;;1.95;100.00
25130;BME280;13308;50.860;13.664;2023-11-21T19:09:34;96923.19;;;1.97;100.00
25130;BME280;13308;50.860;13.664;2023-11-21T19:12:01;96923.88;;;1.94;100.00
